Time;durP1;ratioP1;P1;durP2;ratioP2;P2;SDS_P1;SDS_P2;PMS_P1;PMS_P2;Temp;Humidity;BMP_temperature;BMP_pressure;BME280_temperature;BME280_humidity;BME280_pressure;Samples;Min_cycle;Max_cycle;Signal;HPM_P1;HPM_P2
2021/12/22 00:00:08;;;;;;;7.40;3.97;;;5.50;45.00;;;;;;5095557;28;20195;-50
2021/12/22 00:02:36;;;;;;;5.72;2.92;;;5.50;44.90;;;;;;5095582;28;20171;-49
2021/12/22 00:05:04;;;;;;;7.32;4.32;;;5.50;45.00;;;;;;5077948;28;20175;-50
2021/12/22 00:07:31;;;;;;;5.50;3.60;;;5.50;45.00;;;;;;5095297;28;20167;-49
2021/12/22 00:09:59;;;;;;;9.23;3.08;;;5.60;45.10;;;;;;5095346;28;20176;-49
2021/12/22 00:12:26;;;;;;;4.07;2.40;;;5.60;45.10;;;;;;5095378;28;20156;-50
2021/12/22 00:14:53;;;;;;;4.43;2.60;;;5.60;45.10;;;;;;5094312;28;20250;-50
2021/12/22 00:17:21;;;;;;;5.65;3.03;;;5.60;45.10;;;;;;5095831;28;20247;-49
2021/12/22 00:19:51;;;;;;;6.40;3.72;;;5.60;45.10;;;;;;5095346;28;20258;-49
2021/12/22 00:22:19;;;;;;;5.78;3.65;;;5.60;45.20;;;;;;5094286;28;20579;-49
2021/12/22 00:24:46;;;;;;;5.22;3.83;;;5.60;45.10;;;;;;5095242;28;20525;-49
2021/12/22 00:27:14;;;;;;;11.32;4.80;;;5.60;45.10;;;;;;5095189;28;20543;-49
2021/12/22 00:29:46;;;;;;;4.22;2.60;;;5.60;45.10;;;;;;5094419;28;20170;-49
2021/12/22 00:32:15;;;;;;;5.50;3.22;;;5.60;45.10;;;;;;5094827;28;20172;-49
2021/12/22 00:34:48;;;;;;;11.90;4.68;;;5.70;45.30;;;;;;5095164;28;20164;-49
2021/12/22 00:37:19;;;;;;;8.73;5.45;;;5.70;45.20;;;;;;5077700;28;20218;-49
2021/12/22 00:39:47;;;;;;;14.05;4.07;;;5.60;45.20;;;;;;5094209;28;20490;-49
2021/12/22 00:42:15;;;;;;;5.25;3.08;;;5.60;45.20;;;;;;5095053;28;20612;-50
2021/12/22 00:44:50;;;;;;;6.32;2.97;;;5.60;45.20;;;;;;5094174;28;20164;-50
2021/12/22 00:47:22;;;;;;;6.00;3.72;;;5.60;45.20;;;;;;5093879;28;20186;-49
2021/12/22 00:49:49;;;;;;;9.75;5.82;;;5.60;45.30;;;;;;5077112;28;20172;-49
2021/12/22 00:52:17;;;;;;;4.18;2.92;;;5.60;45.30;;;;;;5095083;28;20485;-49
2021/12/22 00:54:44;;;;;;;15.32;5.25;;;5.60;45.50;;;;;;5077329;28;20156;-49
2021/12/22 00:57:14;;;;;;;9.43;3.88;;;5.60;45.40;;;;;;5094748;28;20197;-50
2021/12/22 00:59:42;;;;;;;7.68;4.00;;;5.60;45.50;;;;;;5095435;28;20207;-49
2021/12/22 01:02:12;;;;;;;6.78;5.70;;;5.60;45.50;;;;;;5098628;28;20466;-49
2021/12/22 01:04:40;;;;;;;5.50;2.35;;;5.60;45.50;;;;;;5098039;28;20189;-50
2021/12/22 01:07:08;;;;;;;6.72;3.80;;;5.60;45.50;;;;;;5098669;28;20179;-50
2021/12/22 01:09:36;;;;;;;7.75;4.78;;;5.60;45.50;;;;;;5098770;28;20171;-49
2021/12/22 01:12:04;;;;;;;5.40;2.05;;;5.60;45.50;;;;;;5098832;28;20170;-49
2021/12/22 01:14:32;;;;;;;5.18;2.83;;;5.60;45.30;;;;;;5098011;28;20156;-49
2021/12/22 01:17:02;;;;;;;6.10;4.60;;;5.50;45.30;;;;;;5097720;28;20206;-49
2021/12/22 01:19:40;;;;;;;11.75;6.50;;;5.60;45.50;;;;;;5097600;28;20585;-49
2021/12/22 01:22:35;;;;;;;8.63;6.45;;;5.60;45.30;;;;;;5097635;28;20571;-49
2021/12/22 01:25:01;;;;;;;7.97;4.55;;;5.60;45.30;;;;;;5097849;28;20266;-49
2021/12/22 01:27:36;;;;;;;4.22;3.03;;;5.60;45.40;;;;;;5081426;28;20179;-49
2021/12/22 01:30:21;;;;;;;9.18;4.78;;;5.60;45.50;;;;;;5081448;28;20246;-49
2021/12/22 01:32:51;;;;;;;3.28;2.20;;;5.60;45.50;;;;;;5097519;28;20156;-50
2021/12/22 01:35:22;;;;;;;4.22;3.22;;;5.60;45.50;;;;;;5081105;28;20168;-49
2021/12/22 01:37:50;;;;;;;8.30;4.07;;;5.60;45.50;;;;;;5080753;28;20290;-49
2021/12/22 01:40:20;;;;;;;3.90;3.55;;;5.60;45.50;;;;;;5097374;28;20171;-49
2021/12/22 01:42:48;;;;;;;6.53;3.58;;;5.60;45.50;;;;;;5098370;28;20195;-49
2021/12/22 01:45:46;;;;;;;6.90;5.25;;;5.60;45.50;;;;;;5097127;28;20188;-49
2021/12/22 01:51:08;;;;;;;8.75;4.18;;;5.60;45.50;;;;;;5097588;28;20175;-49
2021/12/22 01:53:47;;;;;;;6.50;2.75;;;5.60;45.50;;;;;;5097872;28;20517;-49
2021/12/22 01:56:28;;;;;;;6.65;3.85;;;5.60;45.50;;;;;;5096921;28;20156;-50
2021/12/22 01:58:59;;;;;;;6.18;3.03;;;5.60;45.40;;;;;;5096709;28;20680;-50
2021/12/22 02:01:29;;;;;;;6.90;3.92;;;5.60;45.50;;;;;;5097733;28;20231;-49
2021/12/22 02:03:57;;;;;;;9.00;4.07;;;5.60;45.40;;;;;;5097666;28;20593;-49
2021/12/22 02:06:25;;;;;;;9.65;5.13;;;5.50;45.20;;;;;;5096641;28;20171;-49
2021/12/22 02:08:54;;;;;;;13.18;2.92;;;5.60;45.50;;;;;;5096714;28;20182;-50
2021/12/22 02:11:22;;;;;;;7.90;4.35;;;5.60;45.50;;;;;;5096135;28;20189;-49
2021/12/22 02:14:01;;;;;;;5.65;3.95;;;5.60;45.50;;;;;;5097580;28;20168;-50
2021/12/22 02:16:34;;;;;;;6.90;3.08;;;5.60;45.50;;;;;;5096413;28;20176;-50
2021/12/22 02:19:05;;;;;;;4.03;2.50;;;5.60;45.60;;;;;;5080301;28;20261;-50
2021/12/22 02:21:38;;;;;;;5.00;2.10;;;5.60;45.60;;;;;;5096366;28;20175;-50
2021/12/22 02:24:07;;;;;;;6.57;3.63;;;5.60;45.60;;;;;;5080318;28;20217;-50
2021/12/22 02:26:43;;;;;;;4.25;3.45;;;5.60;45.60;;;;;;5097167;28;20497;-50
2021/12/22 02:29:22;;;;;;;6.32;3.00;;;5.60;45.60;;;;;;5080666;28;20167;-50
2021/12/22 02:32:08;;;;;;;6.55;3.17;;;5.60;45.60;;;;;;5096100;28;20180;-50
2021/12/22 02:34:42;;;;;;;6.07;2.95;;;5.60;45.60;;;;;;5096211;28;20157;-50
2021/12/22 02:37:13;;;;;;;10.77;2.53;;;5.60;46.00;;;;;;5095727;28;20174;-49
2021/12/22 02:40:11;;;;;;;5.53;3.38;;;5.60;45.60;;;;;;5096064;28;20687;-49
2021/12/22 02:42:39;;;;;;;12.40;5.25;;;5.60;45.70;;;;;;5096303;28;20187;-49
2021/12/22 02:45:15;;;;;;;4.18;3.60;;;5.50;45.70;;;;;;5097227;28;20243;-49
2021/12/22 02:47:43;;;;;;;5.20;3.15;;;5.60;45.80;;;;;;5095865;28;20543;-49
2021/12/22 02:50:14;;;;;;;2.75;1.45;;;5.50;45.70;;;;;;5079365;28;20175;-49
2021/12/22 02:53:01;;;;;;;4.38;2.38;;;5.60;45.70;;;;;;5079379;28;20477;-49
2021/12/22 02:55:41;;;;;;;11.95;4.53;;;5.60;45.80;;;;;;5095723;28;20529;-49
2021/12/22 02:58:13;;;;;;;7.18;3.67;;;5.60;45.70;;;;;;5095897;28;20368;-49
2021/12/22 03:03:49;;;;;;;4.57;3.20;;;5.60;45.70;;;;;;5096597;28;20175;-49
2021/12/22 03:06:32;;;;;;;8.32;4.07;;;5.60;45.80;;;;;;5095454;28;20171;-49
2021/12/22 03:09:01;;;;;;;6.88;2.53;;;5.60;45.80;;;;;;5066227;28;20175;-50
2021/12/22 03:11:30;;;;;;;5.90;3.45;;;5.60;45.90;;;;;;5095609;28;20246;-50
2021/12/22 03:13:57;;;;;;;3.55;2.15;;;5.60;45.90;;;;;;5096273;28;20498;-49
2021/12/22 03:16:25;;;;;;;4.07;2.83;;;5.50;45.80;;;;;;5096382;28;20160;-50
2021/12/22 03:18:53;;;;;;;7.03;4.65;;;5.50;45.80;;;;;;5096241;28;20590;-50
2021/12/22 03:21:22;;;;;;;5.10;3.28;;;5.50;45.80;;;;;;5096007;28;20167;-49
2021/12/22 03:23:53;;;;;;;4.65;4.20;;;5.50;45.90;;;;;;5095381;28;20184;-49
2021/12/22 03:26:22;;;;;;;3.50;1.73;;;5.50;46.00;;;;;;5096051;28;20164;-50
2021/12/22 03:28:51;;;;;;;3.40;2.30;;;5.50;46.00;;;;;;5095987;28;20191;-49
2021/12/22 03:31:18;;;;;;;5.60;2.90;;;5.50;46.00;;;;;;5096071;28;20168;-50
2021/12/22 03:33:46;;;;;;;4.18;2.70;;;5.50;45.70;;;;;;5095042;28;20171;-50
2021/12/22 03:36:13;;;;;;;9.27;2.80;;;5.40;45.50;;;;;;5096093;28;20173;-49
2021/12/22 03:38:42;;;;;;;5.95;4.13;;;5.40;45.50;;;;;;5094632;28;20306;-50
2021/12/22 03:41:10;;;;;;;3.50;3.17;;;5.40;45.70;;;;;;5095669;28;20259;-50
2021/12/22 03:43:37;;;;;;;5.68;1.45;;;5.30;45.80;;;;;;5095240;28;20593;-50
2021/12/22 03:46:05;;;;;;;5.10;3.45;;;5.30;45.80;;;;;;5095684;28;20492;-50
2021/12/22 03:48:32;;;;;;;4.70;2.50;;;5.30;45.80;;;;;;5095793;28;20164;-49
2021/12/22 03:51:00;;;;;;;8.95;3.75;;;5.30;45.70;;;;;;5095565;28;20255;-50
2021/12/22 03:53:28;;;;;;;7.57;4.35;;;5.30;45.60;;;;;;5094743;28;20246;-49
2021/12/22 03:55:55;;;;;;;1.40;1.10;;;5.20;45.30;;;;;;5095538;28;20168;-50
2021/12/22 03:58:23;;;;;;;6.22;4.50;;;5.20;45.50;;;;;;5095506;28;20192;-49
2021/12/22 04:00:54;;;;;;;4.70;3.60;;;5.10;45.60;;;;;;5094734;28;20198;-50
2021/12/22 04:03:25;;;;;;;5.90;3.25;;;5.10;45.60;;;;;;5095585;28;20550;-49
2021/12/22 04:05:53;;;;;;;5.07;2.78;;;5.10;45.60;;;;;;5094495;28;20258;-49
2021/12/22 04:08:20;;;;;;;3.05;1.15;;;5.10;45.60;;;;;;5095655;28;20168;-50
2021/12/22 04:10:50;;;;;;;6.40;2.33;;;5.00;45.50;;;;;;5094267;28;20543;-50
2021/12/22 04:13:18;;;;;;;6.72;3.13;;;5.00;45.30;;;;;;5094367;28;20528;-49
2021/12/22 04:15:45;;;;;;;7.57;3.15;;;5.00;45.20;;;;;;5095179;28;20597;-49
2021/12/22 04:18:13;;;;;;;3.60;2.53;;;4.80;45.30;;;;;;5077539;28;20195;-50
2021/12/22 04:20:41;;;;;;;10.38;3.75;;;4.80;45.40;;;;;;5094264;28;20175;-49
2021/12/22 04:23:09;;;;;;;7.65;2.22;;;4.80;45.40;;;;;;5095086;28;20589;-49
2021/12/22 04:25:37;;;;;;;5.10;2.20;;;4.80;45.30;;;;;;5095060;28;20164;-50
2021/12/22 04:28:09;;;;;;;5.03;3.05;;;4.70;45.30;;;;;;5095018;28;20178;-49
2021/12/22 04:30:50;;;;;;;2.80;1.67;;;4.70;45.20;;;;;;5094925;28;20175;-49
2021/12/22 04:33:21;;;;;;;3.40;2.50;;;4.60;45.00;;;;;;5094504;28;20172;-50
2021/12/22 04:35:51;;;;;;;7.03;4.30;;;4.50;44.90;;;;;;5094105;28;20499;-49
2021/12/22 04:38:19;;;;;;;10.15;3.00;;;4.40;45.00;;;;;;5093606;28;20224;-50
2021/12/22 04:40:47;;;;;;;9.90;3.30;;;4.40;45.00;;;;;;5094982;28;20502;-50
2021/12/22 04:43:15;;;;;;;4.10;2.95;;;4.30;45.10;;;;;;5094005;28;20171;-50
2021/12/22 04:45:43;;;;;;;4.38;2.42;;;4.30;45.30;;;;;;5077418;28;20162;-50
2021/12/22 04:48:11;;;;;;;5.78;3.95;;;4.30;45.20;;;;;;5077425;28;20496;-50
2021/12/22 04:50:38;;;;;;;7.60;4.32;;;4.30;45.00;;;;;;5094958;28;20164;-49
2021/12/22 04:55:33;;;;;;;2.25;1.80;;;4.20;45.10;;;;;;5094084;28;20168;-49
2021/12/22 04:58:01;;;;;;;9.80;4.20;;;4.20;45.00;;;;;;5093714;28;20277;-50
2021/12/22 05:00:32;;;;;;;4.32;2.65;;;4.20;44.80;;;;;;5093863;28;20218;-49
2021/12/22 05:03:00;;;;;;;4.22;1.13;;;4.10;44.90;;;;;;5077699;28;20187;-50
2021/12/22 05:05:28;;;;;;;4.78;3.45;;;4.00;45.00;;;;;;5093800;28;20183;-50
2021/12/22 05:07:55;;;;;;;6.85;3.83;;;4.10;45.20;;;;;;5094952;28;20160;-49
2021/12/22 05:10:24;;;;;;;6.10;2.60;;;4.00;45.00;;;;;;5093949;28;20171;-50
2021/12/22 05:12:51;;;;;;;4.22;2.28;;;4.10;45.20;;;;;;5093728;28;20225;-50
2021/12/22 05:15:22;;;;;;;7.50;4.18;;;4.00;44.90;;;;;;5077174;28;20176;-50
2021/12/22 05:20:22;;;;;;;2.83;1.50;;;4.00;44.80;;;;;;5093858;28;20172;-49
2021/12/22 05:22:50;;;;;;;6.80;2.83;;;3.90;44.70;;;;;;5094704;28;20312;-49
2021/12/22 05:25:18;;;;;;;7.70;3.65;;;3.90;44.70;;;;;;5093546;28;20493;-50
2021/12/22 05:27:45;;;;;;;4.97;3.03;;;3.80;44.60;;;;;;5094445;28;20537;-50
2021/12/22 05:30:13;;;;;;;5.40;3.28;;;3.80;44.40;;;;;;5093486;28;20168;-50
2021/12/22 05:32:41;;;;;;;3.50;1.92;;;3.70;44.60;;;;;;5094474;28;20167;-49
2021/12/22 05:35:10;;;;;;;2.08;1.73;;;3.70;44.70;;;;;;5093659;28;20164;-49
2021/12/22 05:37:39;;;;;;;3.17;2.40;;;3.70;44.70;;;;;;5094161;28;20204;-50
2021/12/22 05:40:08;;;;;;;9.10;4.93;;;3.60;44.50;;;;;;5093779;28;20148;-50
2021/12/22 05:42:35;;;;;;;2.40;2.20;;;3.60;44.40;;;;;;5094332;28;20160;-50
2021/12/22 05:45:04;;;;;;;3.72;1.90;;;3.60;44.60;;;;;;5093878;28;20165;-49
2021/12/22 05:47:32;;;;;;;1.70;1.38;;;3.60;44.70;;;;;;5096944;28;20168;-50
2021/12/22 05:50:00;;;;;;;8.55;3.20;;;3.50;44.80;;;;;;5080638;28;20176;-50
2021/12/22 05:52:27;;;;;;;6.63;4.10;;;3.50;44.80;;;;;;5080206;28;20197;-50
2021/12/22 05:54:55;;;;;;;7.28;3.88;;;3.50;44.60;;;;;;5097718;28;20471;-49
2021/12/22 05:57:22;;;;;;;5.90;2.40;;;3.40;44.50;;;;;;5096935;28;20242;-50
2021/12/22 05:59:49;;;;;;;1.65;1.35;;;3.40;44.80;;;;;;5096893;28;20278;-49
2021/12/22 06:02:17;;;;;;;3.42;3.20;;;3.40;44.90;;;;;;5097900;28;20168;-50
2021/12/22 06:04:44;;;;;;;7.35;2.95;;;3.40;44.90;;;;;;5097851;28;20254;-50
2021/12/22 06:07:12;;;;;;;5.20;3.03;;;3.40;44.90;;;;;;5097498;28;20156;-49
2021/12/22 06:09:39;;;;;;;10.35;3.42;;;3.50;44.90;;;;;;5096590;28;20172;-50
2021/12/22 06:12:06;;;;;;;10.93;4.07;;;3.50;44.90;;;;;;5096582;28;20203;-49
2021/12/22 06:14:34;;;;;;;2.83;1.42;;;3.50;44.90;;;;;;5097603;28;20508;-50
2021/12/22 06:17:02;;;;;;;7.55;2.60;;;3.50;44.80;;;;;;5079707;28;20251;-50
2021/12/22 06:19:29;;;;;;;7.00;2.55;;;3.50;44.80;;;;;;5097423;28;20206;-50
2021/12/22 06:21:57;;;;;;;4.82;4.38;;;3.40;44.80;;;;;;5097302;28;20156;-50
2021/12/22 06:24:25;;;;;;;4.13;2.40;;;3.40;44.90;;;;;;5097315;28;20182;-50
2021/12/22 06:26:52;;;;;;;8.05;2.72;;;3.40;44.90;;;;;;5097232;28;20217;-50
2021/12/22 06:29:20;;;;;;;4.55;2.75;;;3.40;44.70;;;;;;5097005;28;20265;-50
2021/12/22 06:31:47;;;;;;;2.20;1.55;;;3.40;44.80;;;;;;5097587;28;20160;-50
2021/12/22 06:34:15;;;;;;;12.25;4.30;;;3.30;44.80;;;;;;5097194;28;20167;-50
2021/12/22 06:36:42;;;;;;;3.80;1.70;;;3.30;44.70;;;;;;5097005;28;20167;-49
2021/12/22 06:39:10;;;;;;;7.15;3.63;;;3.30;44.60;;;;;;5079073;28;20235;-49
2021/12/22 06:41:38;;;;;;;7.68;3.80;;;3.30;44.60;;;;;;5097084;28;20270;-50
2021/12/22 06:44:06;;;;;;;2.38;2.20;;;3.30;44.60;;;;;;5096020;28;20162;-50
2021/12/22 06:46:33;;;;;;;4.30;2.40;;;3.20;44.40;;;;;;5096209;28;20473;-50
2021/12/22 06:49:01;;;;;;;3.92;1.85;;;3.20;44.50;;;;;;5095862;28;20516;-50
2021/12/22 06:51:28;;;;;;;4.30;2.60;;;3.20;44.30;;;;;;5095790;28;20164;-50
2021/12/22 06:53:56;;;;;;;6.68;2.97;;;3.10;44.40;;;;;;5096675;28;20269;-50
2021/12/22 06:56:23;;;;;;;16.50;4.40;;;3.10;44.50;;;;;;5079060;28;20627;-50
2021/12/22 06:58:51;;;;;;;5.10;2.75;;;3.10;44.60;;;;;;5096736;28;20215;-50
2021/12/22 07:01:20;;;;;;;2.92;1.42;;;3.10;44.60;;;;;;5095608;28;20165;-50
2021/12/22 07:03:48;;;;;;;7.53;3.05;;;3.10;44.60;;;;;;5095413;28;20198;-49
2021/12/22 07:06:16;;;;;;;3.22;2.08;;;3.10;44.70;;;;;;5095683;28;20530;-50
2021/12/22 07:08:44;;;;;;;3.22;2.38;;;3.10;44.80;;;;;;5095618;28;20255;-50
2021/12/22 07:11:13;;;;;;;9.43;2.67;;;3.10;45.60;;;;;;5096317;28;20307;-50
2021/12/22 07:13:41;;;;;;;6.55;2.75;;;3.10;45.00;;;;;;5095536;28;20171;-50
2021/12/22 07:16:09;;;;;;;3.92;3.55;;;3.10;44.90;;;;;;5095509;28;20172;-49
2021/12/22 07:18:36;;;;;;;5.72;4.05;;;3.10;45.00;;;;;;5096146;28;20279;-50
2021/12/22 07:21:03;;;;;;;8.55;5.07;;;3.20;45.00;;;;;;5095388;28;20171;-50
2021/12/22 07:23:31;;;;;;;6.88;4.28;;;3.10;45.00;;;;;;5096183;28;20187;-50
2021/12/22 07:25:58;;;;;;;2.58;1.88;;;3.20;45.00;;;;;;5096128;28;20669;-50
2021/12/22 07:28:26;;;;;;;3.08;2.65;;;3.20;45.00;;;;;;5095951;28;20206;-50
2021/12/22 07:30:53;;;;;;;4.18;2.50;;;3.20;45.00;;;;;;5078892;28;20478;-50
2021/12/22 07:33:20;;;;;;;2.88;1.58;;;3.20;45.00;;;;;;5095084;28;20226;-50
2021/12/22 07:36:08;;;;;;;6.35;2.92;;;3.20;45.00;;;;;;5095997;28;20160;-50
2021/12/22 07:38:48;;;;;;;12.32;3.42;;;3.20;45.00;;;;;;5095607;28;20214;-50
2021/12/22 07:41:16;;;;;;;12.15;3.75;;;3.20;45.10;;;;;;5094896;28;20243;-50
2021/12/22 07:43:44;;;;;;;6.25;2.90;;;3.30;45.30;;;;;;5096074;28;20164;-50
2021/12/22 07:46:11;;;;;;;3.85;2.90;;;3.30;45.40;;;;;;5095772;28;20168;-50
2021/12/22 07:48:39;;;;;;;7.13;4.72;;;3.30;45.60;;;;;;5095863;28;20174;-49
2021/12/22 07:51:06;;;;;;;3.63;3.22;;;3.40;45.60;;;;;;5095184;28;20162;-50
2021/12/22 07:53:34;;;;;;;6.43;2.92;;;3.40;45.40;;;;;;5094908;28;20478;-50
2021/12/22 07:56:02;;;;;;;4.15;2.58;;;3.50;45.60;;;;;;5094579;28;20187;-50
2021/12/22 07:58:30;;;;;;;4.63;2.78;;;3.50;45.40;;;;;;5094578;28;20227;-50
2021/12/22 08:00:58;;;;;;;3.28;2.60;;;3.60;45.40;;;;;;5094402;28;20554;-50
2021/12/22 08:03:26;;;;;;;3.10;2.33;;;3.70;45.30;;;;;;5094554;28;20185;-50
2021/12/22 08:05:54;;;;;;;10.32;4.30;;;3.90;45.10;;;;;;5095514;28;20596;-50
2021/12/22 08:08:21;;;;;;;3.55;2.70;;;4.00;44.80;;;;;;5094235;28;20168;-50
2021/12/22 08:10:49;;;;;;;6.85;2.50;;;4.10;44.80;;;;;;5094448;28;20164;-49
2021/12/22 08:13:17;;;;;;;6.15;3.92;;;4.10;44.70;;;;;;5094543;28;20168;-50
2021/12/22 08:15:45;;;;;;;4.25;2.22;;;4.10;44.80;;;;;;5094450;28;20168;-50
2021/12/22 08:18:13;;;;;;;6.90;3.53;;;4.20;44.70;;;;;;5095255;28;20292;-50
2021/12/22 08:20:40;;;;;;;6.53;2.55;;;4.30;44.60;;;;;;5095143;28;20196;-50
2021/12/22 08:23:08;;;;;;;11.90;4.20;;;4.40;44.30;;;;;;5094489;28;20221;-50
2021/12/22 08:25:35;;;;;;;8.55;3.65;;;4.40;44.10;;;;;;5077768;28;20296;-50
2021/12/22 08:28:03;;;;;;;4.70;1.92;;;4.50;43.40;;;;;;5095073;28;20168;-50
2021/12/22 08:30:31;;;;;;;3.95;2.38;;;4.50;43.10;;;;;;5095150;28;20164;-50
2021/12/22 08:33:01;;;;;;;4.72;2.55;;;4.40;43.10;;;;;;5095152;28;20164;-50
2021/12/22 08:35:30;;;;;;;4.55;2.95;;;4.40;43.10;;;;;;5093945;28;20210;-50
2021/12/22 08:40:43;;;;;;;3.60;2.88;;;4.70;43.30;;;;;;5094511;28;20186;-50
2021/12/22 08:43:10;;;;;;;6.05;4.25;;;4.80;43.10;;;;;;5094045;28;20497;-50
2021/12/22 08:45:38;;;;;;;4.78;3.85;;;5.00;42.50;;;;;;5095055;28;20164;-50
2021/12/22 08:48:06;;;;;;;4.75;2.55;;;5.20;42.60;;;;;;5094770;28;20175;-50
2021/12/22 08:50:34;;;;;;;5.88;3.67;;;5.40;42.60;;;;;;5095039;28;20225;-50
2021/12/22 08:53:01;;;;;;;3.95;2.80;;;5.60;41.80;;;;;;5094623;28;20547;-50
2021/12/22 08:55:29;;;;;;;6.63;5.38;;;5.70;41.80;;;;;;5094857;28;20164;-50
2021/12/22 08:57:56;;;;;;;3.75;2.55;;;5.80;40.90;;;;;;5094025;28;20266;-50
2021/12/22 09:00:23;;;;;;;5.80;3.05;;;5.90;41.30;;;;;;5094077;28;20168;-50
2021/12/22 09:02:51;;;;;;;5.97;3.15;;;6.00;40.90;;;;;;5094545;28;20160;-50
2021/12/22 09:05:19;;;;;;;7.88;4.95;;;6.20;40.30;;;;;;5094875;28;20172;-50
2021/12/22 09:07:46;;;;;;;10.20;4.65;;;6.40;40.20;;;;;;5093817;28;20206;-50
2021/12/22 09:10:13;;;;;;;4.13;2.33;;;6.70;39.30;;;;;;5094149;28;20259;-50
2021/12/22 09:12:41;;;;;;;6.03;3.28;;;6.80;39.00;;;;;;5094571;28;20525;-50
2021/12/22 09:15:09;;;;;;;6.75;3.63;;;6.80;38.50;;;;;;5093629;28;20168;-50
2021/12/22 09:17:36;;;;;;;12.50;4.85;;;6.70;38.60;;;;;;5093923;28;20164;-50
2021/12/22 09:20:05;;;;;;;6.97;3.65;;;6.70;38.70;;;;;;5094838;28;20550;-50
2021/12/22 09:22:32;;;;;;;6.85;4.50;;;6.70;38.90;;;;;;5098557;28;20156;-49
2021/12/22 09:24:59;;;;;;;9.95;3.65;;;6.80;38.60;;;;;;5080880;28;20172;-50
2021/12/22 09:27:27;;;;;;;8.68;3.20;;;6.80;38.30;;;;;;5097570;28;20214;-50
2021/12/22 09:29:54;;;;;;;8.00;2.97;;;6.80;38.30;;;;;;5098276;28;20164;-49
2021/12/22 09:32:22;;;;;;;6.28;3.75;;;6.80;38.60;;;;;;5097444;28;20172;-50
2021/12/22 09:34:50;;;;;;;6.72;3.35;;;6.80;38.00;;;;;;5098699;28;20164;-50
2021/12/22 09:37:19;;;;;;;4.60;3.15;;;6.90;38.00;;;;;;5098004;28;20171;-50
2021/12/22 09:39:46;;;;;;;5.65;4.25;;;7.00;37.50;;;;;;5097646;28;20278;-50
2021/12/22 09:42:14;;;;;;;8.63;3.97;;;7.40;37.40;;;;;;5097198;28;20160;-50
2021/12/22 09:44:46;;;;;;;5.85;3.17;;;7.80;36.40;;;;;;5097167;28;20606;-50
2021/12/22 09:47:23;;;;;;;7.88;4.57;;;8.40;36.50;;;;;;5097337;28;20640;-50
2021/12/22 09:50:08;;;;;;;7.65;3.90;;;8.80;35.10;;;;;;5097796;28;20175;-50
2021/12/22 09:52:38;;;;;;;6.63;3.60;;;9.00;34.90;;;;;;5097220;28;20206;-49
2021/12/22 09:55:08;;;;;;;6.25;5.07;;;8.90;34.80;;;;;;5098010;28;20207;-49
2021/12/22 09:57:36;;;;;;;5.50;3.58;;;8.90;34.80;;;;;;5080548;28;20164;-49
2021/12/22 10:00:08;;;;;;;6.68;3.35;;;8.80;34.60;;;;;;5096935;28;20166;-50
2021/12/22 10:02:35;;;;;;;4.93;3.15;;;8.90;35.60;;;;;;5096851;28;20175;-50
2021/12/22 10:05:03;;;;;;;6.63;3.60;;;9.20;33.80;;;;;;5097951;28;20160;-49
2021/12/22 10:07:37;;;;;;;4.82;3.35;;;9.60;33.50;;;;;;5096968;28;20165;-49
2021/12/22 10:10:09;;;;;;;3.25;2.60;;;10.10;32.90;;;;;;5080900;28;20164;-50
2021/12/22 10:12:38;;;;;;;8.15;2.70;;;10.80;30.30;;;;;;5097751;28;20148;-50
2021/12/22 10:15:08;;;;;;;6.38;3.28;;;11.30;30.80;;;;;;5097009;28;20588;-49
2021/12/22 10:17:40;;;;;;;4.45;2.55;;;11.90;30.10;;;;;;5096432;28;20176;-50
2021/12/22 10:20:14;;;;;;;6.10;3.13;;;12.50;30.50;;;;;;5096478;28;20232;-49
2021/12/22 10:22:45;;;;;;;6.57;3.15;;;12.80;27.80;;;;;;5097351;28;20151;-50
2021/12/22 10:25:22;;;;;;;4.53;2.63;;;13.40;28.10;;;;;;5080032;28;20238;-50
2021/12/22 10:28:09;;;;;;;5.43;2.85;;;13.90;25.20;;;;;;5096883;28;20168;-50
2021/12/22 10:30:42;;;;;;;3.45;2.15;;;14.20;26.90;;;;;;5096741;28;20536;-50
2021/12/22 10:33:27;;;;;;;6.15;3.75;;;14.60;26.70;;;;;;5096133;28;20171;-50
2021/12/22 10:35:57;;;;;;;5.40;3.38;;;15.20;24.60;;;;;;5096389;28;20592;-50
2021/12/22 10:38:30;;;;;;;4.78;3.30;;;15.40;21.60;;;;;;5095905;28;20211;-50
2021/12/22 10:41:15;;;;;;;8.20;3.63;;;15.60;23.80;;;;;;5096358;28;20247;-50
2021/12/22 10:43:46;;;;;;;5.68;3.22;;;15.90;24.40;;;;;;5096130;28;20156;-50
2021/12/22 10:46:31;;;;;;;6.15;3.67;;;16.20;21.80;;;;;;5079469;28;20168;-50
2021/12/22 10:49:20;;;;;;;5.85;3.17;;;16.30;23.00;;;;;;5095835;28;20597;-50
2021/12/22 10:52:00;;;;;;;3.83;2.83;;;16.40;22.60;;;;;;5079992;28;20190;-50
2021/12/22 10:54:39;;;;;;;5.13;2.90;;;16.30;22.50;;;;;;5096190;28;20662;-50
2021/12/22 10:57:10;;;;;;;6.30;3.03;;;16.00;22.00;;;;;;5095900;28;20202;-50
2021/12/22 10:59:47;;;;;;;4.25;2.78;;;15.60;23.80;;;;;;5096187;28;20195;-50
2021/12/22 11:02:26;;;;;;;5.60;3.35;;;15.10;23.60;;;;;;5096841;28;20236;-50
2021/12/22 11:04:54;;;;;;;4.15;2.65;;;14.60;23.20;;;;;;5079465;28;20597;-50
2021/12/22 11:07:26;;;;;;;4.43;3.38;;;14.20;23.30;;;;;;5095454;28;20200;-49
2021/12/22 11:09:54;;;;;;;4.18;2.72;;;13.70;22.80;;;;;;5095412;28;20164;-49
2021/12/22 11:12:38;;;;;;;8.20;3.17;;;13.30;25.00;;;;;;5095643;28;20208;-49
2021/12/22 11:15:22;;;;;;;3.45;2.72;;;12.80;26.70;;;;;;5095451;28;20178;-50
2021/12/22 11:17:50;;;;;;;3.50;2.35;;;12.40;27.00;;;;;;5096140;28;20167;-50
2021/12/22 11:20:22;;;;;;;3.95;2.63;;;12.20;26.20;;;;;;5096210;28;20159;-49
2021/12/22 11:22:58;;;;;;;6.32;3.40;;;11.90;27.20;;;;;;5095272;28;20148;-49
2021/12/22 11:25:27;;;;;;;5.55;3.20;;;11.70;28.40;;;;;;5095186;28;20260;-49
2021/12/22 11:27:57;;;;;;;7.13;2.35;;;11.40;25.10;;;;;;5095191;28;20164;-49
2021/12/22 11:30:26;;;;;;;3.50;1.98;;;11.30;28.70;;;;;;5096134;28;20156;-49
2021/12/22 11:32:57;;;;;;;3.25;2.25;;;11.60;26.90;;;;;;5095167;28;20172;-50
2021/12/22 11:35:26;;;;;;;4.00;2.90;;;12.20;27.30;;;;;;5078440;28;20523;-49
2021/12/22 11:37:55;;;;;;;4.07;3.10;;;12.80;27.60;;;;;;5095448;28;20595;-50
2021/12/22 11:40:24;;;;;;;4.75;3.05;;;13.30;27.20;;;;;;5078827;28;20617;-50
2021/12/22 11:42:51;;;;;;;6.35;3.40;;;13.30;26.80;;;;;;5095162;28;20187;-50
2021/12/22 11:45:22;;;;;;;7.90;3.22;;;13.30;26.70;;;;;;5095658;28;20160;-49
2021/12/22 11:47:57;;;;;;;6.13;2.65;;;13.10;26.10;;;;;;5078344;28;20166;-49
2021/12/22 11:50:31;;;;;;;4.95;2.45;;;13.10;27.30;;;;;;5079099;28;20589;-49
2021/12/22 11:53:08;;;;;;;4.60;2.65;;;13.20;24.80;;;;;;5061838;28;20592;-49
2021/12/22 11:55:47;;;;;;;7.75;3.13;;;13.20;26.20;;;;;;5094585;28;20156;-49
2021/12/22 11:58:26;;;;;;;4.97;2.58;;;13.10;26.10;;;;;;5095525;28;20601;-49
2021/12/22 12:01:02;;;;;;;4.20;3.20;;;13.00;27.30;;;;;;5094552;28;20152;-49
2021/12/22 12:03:36;;;;;;;5.68;3.10;;;13.00;27.90;;;;;;5095597;28;20186;-50
2021/12/22 12:06:19;;;;;;;3.78;2.10;;;12.90;27.70;;;;;;5094653;28;20600;-49
2021/12/22 12:08:55;;;;;;;3.75;2.78;;;12.60;25.40;;;;;;5095526;28;20164;-49
2021/12/22 12:11:39;;;;;;;4.78;2.95;;;12.40;27.90;;;;;;5095238;28;20217;-49
2021/12/22 12:23:35;;;;;;;3.83;2.20;;;12.80;27.30;;;;;;5094626;28;20171;-49
2021/12/22 12:26:05;;;;;;;5.50;2.85;;;13.20;28.50;;;;;;5094184;28;20160;-51
2021/12/22 12:28:48;;;;;;;3.13;2.53;;;13.50;27.30;;;;;;5094134;28;20202;-49
2021/12/22 12:31:39;;;;;;;4.55;3.03;;;14.10;27.10;;;;;;5077856;28;20235;-50
2021/12/22 12:34:24;;;;;;;4.57;1.90;;;14.70;27.00;;;;;;5095001;28;20216;-50
2021/12/22 12:36:52;;;;;;;4.60;3.17;;;15.20;26.40;;;;;;5094489;28;20300;-49
2021/12/22 12:39:53;;;;;;;4.00;2.90;;;15.70;25.70;;;;;;5094609;28;20277;-49
2021/12/22 12:42:22;;;;;;;6.00;2.80;;;16.30;25.80;;;;;;5095551;28;20624;-49
2021/12/22 12:44:49;;;;;;;11.18;4.80;;;16.60;24.10;;;;;;5094155;28;20175;-49
2021/12/22 12:47:21;;;;;;;3.92;2.88;;;16.50;24.50;;;;;;5094968;28;20253;-50
2021/12/22 12:49:49;;;;;;;3.58;2.92;;;16.20;23.10;;;;;;5094140;28;20213;-49
2021/12/22 12:52:25;;;;;;;4.45;3.00;;;15.90;23.90;;;;;;5094764;28;20172;-49
2021/12/22 12:55:10;;;;;;;4.78;2.75;;;15.80;22.30;;;;;;5095730;28;20156;-49
2021/12/22 12:57:37;;;;;;;3.67;1.92;;;15.90;22.90;;;;;;5098050;28;20199;-50
2021/12/22 13:00:19;;;;;;;5.78;3.20;;;16.20;20.80;;;;;;5098790;28;20234;-49
2021/12/22 13:02:46;;;;;;;6.07;2.63;;;16.50;20.90;;;;;;5081276;28;20593;-49
2021/12/22 13:05:16;;;;;;;3.97;2.78;;;16.70;20.60;;;;;;5098349;28;20156;-49
2021/12/22 13:07:45;;;;;;;3.28;2.33;;;16.60;22.50;;;;;;5098744;28;20258;-50
2021/12/22 13:10:25;;;;;;;6.10;2.70;;;16.40;22.10;;;;;;5097824;28;20183;-50
2021/12/22 13:13:14;;;;;;;5.45;3.85;;;16.10;21.60;;;;;;5098123;28;20640;-50
2021/12/22 13:15:49;;;;;;;4.95;2.38;;;15.60;22.10;;;;;;5097622;28;20228;-49
2021/12/22 13:18:24;;;;;;;4.88;2.70;;;15.10;21.70;;;;;;5066462;28;20192;-49
2021/12/22 13:20:55;;;;;;;3.50;2.38;;;14.60;23.90;;;;;;5098606;28;20184;-49
2021/12/22 13:23:30;;;;;;;4.00;2.78;;;14.40;24.90;;;;;;5081295;28;20214;-50
2021/12/22 13:25:58;;;;;;;3.38;3.00;;;14.30;24.50;;;;;;5065191;28;20168;-49
2021/12/22 13:28:29;;;;;;;6.00;2.20;;;14.20;22.40;;;;;;5098507;28;20196;-50
2021/12/22 13:31:01;;;;;;;5.45;3.13;;;14.10;23.40;;;;;;5097900;28;20593;-49
2021/12/22 13:33:40;;;;;;;5.15;2.35;;;14.00;24.00;;;;;;5081124;28;20620;-49